createdAt,value
2017-09-25T00:01:13.908Z,14.67
2017-09-25T00:03:45.016Z,14.65
2017-09-25T00:06:16.125Z,14.61
2017-09-25T00:08:47.501Z,14.58
2017-09-25T00:11:18.612Z,14.57
2017-09-25T00:13:49.688Z,14.55
2017-09-25T00:16:21.091Z,14.52
2017-09-25T00:18:52.196Z,14.50
2017-09-25T00:21:23.273Z,14.50
2017-09-25T00:23:54.698Z,14.46
2017-09-25T00:26:25.940Z,14.44
2017-09-25T00:28:57.238Z,14.41
2017-09-25T00:31:28.376Z,14.39
2017-09-25T00:33:59.779Z,14.35
2017-09-25T00:36:32.421Z,14.32
2017-09-25T00:39:03.997Z,14.30
2017-09-25T00:41:37.270Z,14.27
2017-09-25T00:44:08.343Z,14.26
2017-09-25T00:46:40.392Z,14.25
2017-09-25T00:49:12.780Z,14.23
2017-09-25T00:51:44.017Z,14.20
2017-09-25T00:54:15.204Z,14.20
2017-09-25T00:56:46.493Z,14.22
2017-09-25T00:59:26.455Z,14.19
2017-09-25T01:02:06.541Z,14.15
2017-09-25T01:04:46.846Z,14.10
2017-09-25T01:07:17.970Z,14.06
2017-09-25T01:09:49.409Z,14.05
2017-09-25T01:12:20.914Z,14.02
2017-09-25T01:14:52.315Z,14.00
2017-09-25T01:17:23.349Z,14.00
2017-09-25T01:19:54.541Z,13.97
2017-09-25T01:22:25.648Z,13.98
2017-09-25T01:24:56.787Z,13.95
2017-09-25T01:27:27.875Z,13.90
2017-09-25T01:29:59.235Z,13.88
2017-09-25T01:32:31.195Z,13.87
2017-09-25T01:35:03.107Z,13.87
2017-09-25T01:37:36.544Z,13.88
2017-09-25T01:40:07.668Z,13.88
2017-09-25T01:42:38.900Z,13.90
2017-09-25T01:45:10.263Z,13.88
2017-09-25T01:47:42.699Z,13.88
2017-09-25T01:50:14.742Z,13.86
2017-09-25T01:52:49.471Z,13.85
2017-09-25T01:55:20.644Z,13.82
2017-09-25T01:57:51.743Z,13.79
2017-09-25T02:00:23.138Z,13.75
2017-09-25T02:02:54.237Z,13.71
2017-09-25T02:05:25.336Z,13.68
2017-09-25T02:07:56.463Z,13.66
2017-09-25T02:10:27.605Z,13.62
2017-09-25T02:12:58.708Z,13.61
2017-09-25T02:15:30.083Z,13.61
2017-09-25T02:18:01.297Z,13.61
2017-09-25T02:20:33.992Z,13.57
2017-09-25T02:23:05.194Z,13.55
2017-09-25T02:25:36.462Z,13.52
2017-09-25T02:28:07.529Z,13.53
2017-09-25T02:30:39.459Z,13.53
2017-09-25T02:33:10.882Z,13.50
2017-09-25T02:35:42.048Z,13.52
2017-09-25T02:38:13.425Z,13.52
2017-09-25T02:40:44.595Z,13.52
2017-09-25T02:43:15.634Z,13.49
2017-09-25T02:45:47.974Z,13.48
2017-09-25T02:48:19.136Z,13.46
2017-09-25T02:50:50.217Z,13.45
2017-09-25T02:53:21.405Z,13.46
2017-09-25T02:55:52.508Z,13.45
2017-09-25T02:58:24.880Z,13.43
2017-09-25T03:00:55.931Z,13.41
2017-09-25T03:03:27.310Z,13.37
2017-09-25T03:05:58.448Z,13.36
2017-09-25T03:08:29.521Z,13.37
2017-09-25T03:11:00.907Z,13.38
2017-09-25T03:13:32.410Z,13.35
2017-09-25T03:16:04.008Z,13.33
2017-09-25T03:18:38.272Z,13.34
2017-09-25T03:21:09.350Z,13.30
2017-09-25T03:28:18.150Z,13.23
2017-09-25T03:30:49.315Z,13.22
2017-09-25T03:33:20.389Z,13.21
2017-09-25T03:35:52.243Z,13.21
2017-09-25T03:38:23.686Z,13.20
2017-09-25T03:40:54.911Z,13.20
2017-09-25T03:43:26.335Z,13.18
2017-09-25T03:45:57.896Z,13.18
2017-09-25T03:48:29.084Z,13.17
2017-09-25T03:51:00.240Z,13.17
2017-09-25T03:53:32.302Z,13.17
2017-09-25T03:56:04.642Z,13.17
2017-09-25T03:58:37.505Z,13.15
2017-09-25T04:01:08.896Z,13.13
2017-09-25T04:03:40.048Z,13.13
2017-09-25T04:06:11.155Z,13.13
2017-09-25T04:08:42.299Z,13.13
2017-09-25T04:11:13.371Z,13.13
2017-09-25T04:13:44.739Z,13.12
2017-09-25T04:16:16.018Z,13.14
2017-09-25T04:18:47.134Z,13.14
2017-09-25T04:21:18.485Z,13.12
2017-09-25T04:23:49.556Z,13.12
2017-09-25T04:26:20.638Z,13.13
2017-09-25T04:28:51.767Z,13.13
2017-09-25T04:31:23.136Z,13.12
2017-09-25T04:33:54.886Z,13.10
2017-09-25T04:36:26.006Z,13.10
2017-09-25T04:38:57.047Z,13.08
2017-09-25T04:41:28.203Z,13.13
2017-09-25T04:43:59.636Z,13.18
2017-09-25T04:46:30.848Z,13.19
2017-09-25T04:49:02.400Z,13.14
2017-09-25T04:51:36.796Z,13.12
2017-09-25T04:54:08.161Z,13.08
2017-09-25T04:56:41.621Z,13.09
2017-09-25T04:59:12.881Z,13.09
2017-09-25T05:01:44.038Z,13.09
2017-09-25T05:04:15.524Z,13.07
2017-09-25T05:06:46.679Z,13.05
2017-09-25T05:09:17.781Z,13.03
2017-09-25T05:11:49.164Z,13.02
2017-09-25T05:14:20.283Z,13.03
2017-09-25T05:16:51.352Z,13.03
2017-09-25T05:19:22.770Z,13.05
2017-09-25T05:21:53.922Z,13.07
2017-09-25T05:24:25.094Z,13.14
2017-09-25T05:26:56.491Z,13.23
2017-09-25T05:29:27.686Z,13.31
2017-09-25T05:31:58.764Z,13.34
2017-09-25T05:34:30.238Z,13.37
2017-09-25T05:37:01.763Z,13.39
2017-09-25T05:39:32.956Z,13.41
2017-09-25T05:42:05.160Z,13.42
2017-09-25T05:44:37.798Z,13.43
2017-09-25T05:47:09.429Z,13.45
2017-09-25T05:49:41.396Z,13.46
2017-09-25T05:52:12.502Z,13.50
2017-09-25T05:54:43.901Z,13.51
2017-09-25T05:57:15.343Z,13.56
2017-09-25T05:59:46.730Z,13.64
2017-09-25T06:02:18.009Z,13.72
2017-09-25T06:04:49.367Z,13.82
2017-09-25T06:07:20.452Z,13.95
2017-09-25T06:09:51.543Z,14.08
2017-09-25T06:12:53.371Z,14.23
2017-09-25T06:15:25.005Z,14.43
2017-09-25T06:17:56.420Z,14.61
2017-09-25T06:20:27.563Z,14.75
2017-09-25T06:22:58.801Z,14.98
2017-09-25T06:25:30.175Z,15.20
2017-09-25T06:28:02.192Z,15.37
2017-09-25T06:30:34.582Z,15.43
2017-09-25T06:33:06.077Z,15.52
2017-09-25T06:35:38.267Z,15.59
2017-09-25T06:38:09.681Z,15.65
2017-09-25T06:40:40.907Z,15.78
2017-09-25T06:43:12.032Z,15.87
2017-09-25T06:45:43.429Z,15.97
2017-09-25T06:48:14.654Z,15.96
2017-09-25T06:50:45.755Z,15.95
2017-09-25T06:53:17.291Z,15.95
2017-09-25T06:55:48.713Z,15.93
2017-09-25T06:58:20.152Z,15.91
2017-09-25T07:00:51.396Z,15.97
2017-09-25T07:03:22.698Z,16.04
2017-09-25T07:05:54.386Z,16.11
2017-09-25T07:08:25.625Z,16.15
2017-09-25T07:10:56.860Z,16.25
2017-09-25T07:13:28.293Z,16.30
2017-09-25T07:15:59.589Z,16.31
2017-09-25T07:18:30.693Z,16.36
2017-09-25T07:21:02.031Z,16.42
2017-09-25T07:23:35.518Z,16.48
2017-09-25T07:26:11.445Z,16.54
2017-09-25T07:28:42.821Z,16.56
2017-09-25T07:31:14.216Z,16.59
2017-09-25T07:33:45.296Z,16.70
2017-09-25T07:36:18.205Z,16.78
2017-09-25T07:38:49.536Z,16.80
2017-09-25T07:41:20.593Z,16.94
2017-09-25T07:43:52.000Z,17.03
2017-09-25T07:46:23.088Z,17.05
2017-09-25T07:48:54.444Z,17.17
2017-09-25T07:51:26.554Z,17.35
2017-09-25T07:53:57.800Z,17.56
2017-09-25T07:56:29.307Z,17.61
2017-09-25T07:59:00.604Z,17.86
2017-09-25T08:01:31.935Z,18.09
2017-09-25T08:04:04.281Z,18.36
2017-09-25T08:06:38.053Z,18.58
2017-09-25T08:09:11.727Z,18.77
2017-09-25T08:11:42.957Z,18.98
2017-09-25T08:14:14.407Z,19.18
2017-09-25T08:16:45.790Z,19.35
2017-09-25T08:19:17.151Z,19.58
2017-09-25T08:21:49.093Z,19.83
2017-09-25T08:24:20.342Z,19.99
2017-09-25T08:26:51.792Z,20.12
2017-09-25T08:29:23.203Z,20.23
2017-09-25T08:31:54.502Z,20.36
2017-09-25T08:34:25.576Z,20.54
2017-09-25T08:36:56.998Z,20.60
2017-09-25T08:39:30.531Z,20.57
2017-09-25T08:42:02.560Z,20.68
2017-09-25T08:44:36.615Z,20.78
2017-09-25T08:47:10.775Z,20.81
2017-09-25T08:49:42.589Z,20.79
2017-09-25T08:52:16.328Z,20.87
2017-09-25T08:54:47.502Z,21.05
2017-09-25T08:57:18.936Z,21.30
2017-09-25T08:59:50.716Z,21.60
2017-09-25T09:02:23.645Z,21.83
2017-09-25T09:04:54.739Z,21.91
2017-09-25T09:07:26.094Z,22.10
2017-09-25T09:10:00.574Z,22.36
2017-09-25T09:12:32.983Z,22.58
2017-09-25T09:15:07.260Z,22.40
2017-09-25T09:17:40.985Z,22.35
2017-09-25T09:20:12.072Z,22.46
2017-09-25T09:22:43.457Z,22.81
2017-09-25T09:25:14.586Z,23.32
2017-09-25T09:27:45.654Z,23.18
2017-09-25T09:30:17.416Z,23.43
2017-09-25T09:32:48.621Z,23.33
2017-09-25T09:35:19.792Z,23.81
2017-09-25T09:37:51.211Z,23.77
2017-09-25T09:40:22.359Z,24.23
2017-09-25T09:42:53.570Z,24.42
2017-09-25T09:45:25.261Z,24.44
2017-09-25T09:47:56.386Z,24.85
2017-09-25T09:50:27.844Z,25.05
2017-09-25T09:52:58.943Z,25.80
2017-09-25T09:55:30.075Z,25.29
2017-09-25T09:58:01.831Z,25.82
2017-09-25T10:00:32.978Z,26.27
2017-09-25T10:03:04.694Z,26.78
2017-09-25T10:05:39.521Z,27.48
2017-09-25T10:08:10.616Z,29.17
2017-09-25T10:10:41.965Z,32.17
2017-09-25T10:13:13.459Z,33.10
2017-09-25T10:15:44.572Z,34.55
2017-09-25T10:18:15.732Z,37.20
2017-09-25T10:20:47.294Z,39.14
2017-09-25T10:23:18.453Z,41.03
2017-09-25T10:25:49.569Z,42.86
2017-09-25T10:28:21.118Z,44.08
2017-09-25T10:30:54.841Z,42.72
2017-09-25T10:33:26.148Z,43.97
2017-09-25T10:35:57.582Z,43.99
2017-09-25T10:38:28.841Z,43.40
2017-09-25T10:40:59.926Z,41.91
2017-09-25T10:43:31.437Z,43.24
2017-09-25T10:46:04.531Z,44.12
2017-09-25T10:48:37.438Z,44.95
2017-09-25T10:51:10.083Z,46.20
2017-09-25T10:53:41.178Z,47.74
2017-09-25T10:56:12.313Z,48.83
2017-09-25T10:58:43.848Z,49.04
2017-09-25T11:01:14.934Z,50.08
2017-09-25T11:03:46.040Z,50.59
2017-09-25T11:06:17.481Z,50.86
2017-09-25T11:08:48.607Z,51.12
2017-09-25T11:11:19.704Z,49.23
2017-09-25T11:13:51.132Z,49.60
2017-09-25T11:16:22.311Z,49.39
2017-09-25T11:18:53.431Z,48.88
2017-09-25T11:21:26.000Z,50.16
2017-09-25T11:23:57.306Z,50.10
2017-09-25T11:26:29.169Z,49.44
2017-09-25T11:29:00.891Z,48.33
2017-09-25T11:31:31.994Z,49.55
2017-09-25T11:34:11.257Z,48.30
2017-09-25T11:36:43.155Z,49.12
2017-09-25T11:39:14.316Z,50.11
2017-09-25T11:41:45.518Z,50.06
2017-09-25T11:44:16.957Z,50.14
2017-09-25T11:46:48.026Z,51.16
2017-09-25T11:49:19.541Z,51.53
2017-09-25T11:51:50.939Z,51.65
2017-09-25T11:54:22.449Z,50.19
2017-09-25T11:56:53.543Z,49.90
2017-09-25T11:59:24.976Z,50.65
2017-09-25T12:01:56.109Z,50.70
2017-09-25T12:04:28.135Z,51.37
2017-09-25T12:07:01.392Z,49.99
2017-09-25T12:09:32.538Z,50.34
2017-09-25T12:12:04.343Z,42.45
2017-09-25T12:14:42.244Z,36.70
2017-09-25T12:17:38.736Z,33.82
2017-09-25T12:20:21.295Z,31.63
2017-09-25T12:22:52.443Z,30.90
2017-09-25T12:25:24.789Z,30.42
2017-09-25T12:27:56.136Z,29.26
2017-09-25T12:30:27.369Z,28.68
2017-09-25T12:32:58.732Z,29.51
2017-09-25T12:35:29.886Z,29.64
2017-09-25T12:38:01.328Z,28.91
2017-09-25T12:40:32.848Z,27.54
2017-09-25T12:43:04.609Z,27.56
2017-09-25T12:45:36.508Z,27.15
2017-09-25T12:48:07.913Z,27.71
2017-09-25T12:50:41.403Z,35.26
2017-09-25T12:53:12.455Z,37.52
2017-09-25T12:55:43.795Z,37.96
2017-09-25T12:58:14.873Z,38.23
2017-09-25T13:00:45.940Z,35.48
2017-09-25T13:03:17.376Z,38.90
2017-09-25T13:05:48.659Z,42.90
2017-09-25T13:08:19.749Z,41.59
2017-09-25T13:10:52.328Z,38.60
2017-09-25T13:13:24.560Z,35.48
2017-09-25T13:15:56.049Z,33.26
2017-09-25T13:18:27.132Z,31.60
2017-09-25T13:23:54.252Z,29.21
2017-09-25T13:26:25.625Z,28.66
2017-09-25T13:28:56.694Z,27.80
2017-09-25T13:31:28.013Z,29.09
2017-09-25T13:33:59.345Z,28.46
2017-09-25T13:36:30.541Z,28.00
2017-09-25T13:39:02.592Z,27.61
2017-09-25T13:41:33.677Z,27.14
2017-09-25T13:44:05.330Z,26.48
2017-09-25T13:46:37.697Z,26.09
2017-09-25T13:49:08.791Z,25.90
2017-09-25T13:51:39.904Z,25.67
2017-09-25T13:54:11.267Z,25.43
2017-09-25T13:56:42.362Z,24.83
2017-09-25T14:04:29.048Z,24.35
2017-09-25T14:07:00.412Z,24.04
2017-09-25T14:09:32.073Z,23.81
2017-09-25T14:12:05.804Z,23.75
2017-09-25T14:14:37.354Z,23.63
2017-09-25T14:17:08.700Z,23.54
2017-09-25T14:20:42.254Z,23.61
2017-09-25T14:23:13.637Z,23.67
2017-09-25T14:25:44.726Z,23.69
2017-09-25T14:28:16.360Z,23.80
2017-09-25T14:30:49.237Z,24.38
2017-09-25T14:33:20.885Z,24.07
2017-09-25T14:35:53.396Z,23.86
2017-09-25T14:38:24.808Z,23.59
2017-09-25T14:40:56.265Z,23.55
2017-09-25T14:43:28.388Z,23.45
2017-09-25T14:45:59.598Z,23.31
2017-09-25T14:48:32.291Z,23.16
2017-09-25T14:51:04.044Z,23.08
2017-09-25T14:53:35.519Z,22.96
2017-09-25T14:56:08.104Z,22.89
2017-09-25T14:58:39.206Z,22.84
2017-09-25T15:01:13.780Z,22.80
2017-09-25T15:03:45.209Z,22.76
2017-09-25T15:06:16.600Z,22.76
2017-09-25T15:08:51.751Z,22.79
2017-09-25T15:11:23.087Z,22.83
2017-09-25T15:13:54.961Z,22.83
2017-09-25T15:16:26.079Z,22.77
2017-09-25T15:18:57.407Z,22.76
2017-09-25T15:21:31.321Z,22.74
2017-09-25T15:24:08.571Z,22.74
2017-09-25T15:26:44.062Z,22.71
2017-09-25T15:29:16.348Z,22.76
2017-09-25T15:31:50.643Z,22.76
2017-09-25T15:34:21.777Z,22.87
2017-09-25T15:36:53.260Z,22.84
2017-09-25T15:39:25.518Z,22.82
2017-09-25T15:41:56.667Z,22.76
2017-09-25T15:44:28.112Z,22.77
2017-09-25T15:46:59.327Z,22.78
2017-09-25T15:49:30.389Z,22.75
2017-09-25T15:52:02.417Z,22.92
2017-09-25T15:54:33.559Z,23.44
2017-09-25T15:57:05.346Z,24.26
2017-09-25T15:59:36.531Z,24.81
2017-09-25T16:02:08.847Z,25.89
2017-09-25T16:04:40.100Z,27.76
2017-09-25T16:07:11.164Z,28.16
2017-09-25T16:09:42.699Z,28.44
2017-09-25T16:12:13.797Z,28.46
2017-09-25T16:14:45.213Z,28.75
2017-09-25T16:17:16.577Z,29.05
2017-09-25T16:19:49.542Z,28.99
2017-09-25T16:22:21.016Z,29.70
2017-09-25T16:24:53.246Z,28.18
2017-09-25T16:27:24.334Z,26.15
2017-09-25T16:29:55.433Z,25.53
2017-09-25T16:32:26.861Z,24.67
2017-09-25T16:34:57.956Z,24.12
2017-09-25T16:37:29.049Z,23.75
2017-09-25T16:40:00.459Z,23.41
2017-09-25T16:42:31.593Z,23.16
2017-09-25T16:45:03.179Z,22.94
2017-09-25T16:47:34.556Z,22.78
2017-09-25T16:50:06.003Z,22.60
2017-09-25T16:52:37.100Z,22.43
2017-09-25T16:55:08.541Z,22.31
2017-09-25T16:57:39.678Z,22.19
2017-09-25T17:00:11.113Z,22.09
2017-09-25T17:02:42.786Z,22.00
2017-09-25T17:05:14.208Z,21.86
2017-09-25T17:07:45.306Z,21.71
2017-09-25T17:10:18.149Z,21.65
2017-09-25T17:12:51.396Z,21.60
2017-09-25T17:15:22.960Z,21.42
2017-09-25T17:17:55.597Z,21.36
2017-09-25T17:20:26.922Z,21.33
2017-09-25T17:22:58.345Z,21.31
2017-09-25T17:25:30.177Z,21.36
2017-09-25T17:28:02.392Z,21.28
2017-09-25T17:30:33.780Z,21.29
2017-09-25T17:33:05.282Z,21.23
2017-09-25T17:35:36.853Z,21.15
2017-09-25T17:38:08.779Z,21.12
2017-09-25T17:40:40.168Z,21.18
2017-09-25T17:43:11.796Z,21.16
2017-09-25T17:45:43.457Z,21.17
2017-09-25T17:48:14.795Z,21.16
2017-09-25T17:50:46.873Z,21.06
2017-09-25T17:53:18.275Z,20.99
2017-09-25T17:55:51.180Z,21.01
2017-09-25T17:58:22.934Z,21.14
2017-09-25T18:00:54.562Z,21.14
2017-09-25T18:03:25.964Z,21.07
2017-09-25T18:05:57.708Z,20.99
2017-09-25T18:08:29.114Z,21.00
2017-09-25T18:11:00.973Z,21.04
2017-09-25T18:13:32.395Z,20.90
2017-09-25T18:16:04.721Z,20.86
2017-09-25T18:18:37.209Z,20.93
2017-09-25T18:21:08.696Z,20.96
2017-09-25T18:23:39.942Z,20.88
2017-09-25T18:26:11.561Z,20.85
2017-09-25T18:28:42.958Z,20.74
2017-09-25T18:31:14.598Z,20.84
2017-09-25T18:33:47.784Z,20.79
2017-09-25T18:36:19.322Z,20.63
2017-09-25T18:38:52.443Z,20.54
2017-09-25T18:41:24.131Z,20.59
2017-09-25T18:43:55.617Z,20.64
2017-09-25T18:46:27.092Z,20.62
2017-09-25T18:49:01.278Z,20.66
2017-09-25T18:51:32.948Z,20.58
2017-09-25T18:54:05.656Z,20.55
2017-09-25T18:56:37.403Z,20.52
2017-09-25T18:59:08.697Z,20.45
2017-09-25T19:01:39.991Z,20.29
2017-09-25T19:04:11.766Z,20.35
2017-09-25T19:06:43.254Z,20.32
2017-09-25T19:09:15.100Z,20.28
2017-09-25T19:11:46.236Z,20.33
2017-09-25T19:14:17.328Z,20.23
2017-09-25T19:16:50.591Z,20.29
2017-09-25T19:19:21.723Z,20.34
2017-09-25T19:21:53.611Z,20.19
2017-09-25T19:24:24.752Z,20.25
2017-09-25T19:26:56.095Z,20.31
2017-09-25T19:29:27.525Z,20.07
2017-09-25T19:31:58.612Z,20.21
2017-09-25T19:34:29.728Z,20.17
2017-09-25T19:37:01.358Z,20.14
2017-09-25T19:39:32.790Z,19.77
2017-09-25T19:42:05.379Z,19.50
2017-09-25T19:44:36.814Z,19.34
2017-09-25T19:47:08.031Z,19.54
2017-09-25T19:49:39.504Z,19.68
2017-09-25T19:52:10.832Z,19.84
2017-09-25T19:54:42.023Z,19.87
2017-09-25T19:57:13.580Z,20.10
2017-09-25T19:59:44.767Z,20.22
2017-09-25T20:02:16.080Z,20.24
2017-09-25T20:04:50.649Z,20.23
2017-09-25T20:07:21.908Z,20.35
2017-09-25T20:09:54.606Z,19.85
2017-09-25T20:12:26.118Z,19.49
2017-09-25T20:14:57.378Z,19.25
2017-09-25T20:17:30.000Z,19.14
2017-09-25T20:20:02.043Z,18.94
2017-09-25T20:22:33.662Z,18.78
2017-09-25T20:25:07.818Z,18.63
2017-09-25T20:27:38.906Z,18.53
2017-09-25T20:30:10.483Z,18.46
2017-09-25T20:32:41.541Z,18.39
2017-09-25T20:35:12.883Z,18.30
2017-09-25T20:37:44.081Z,18.26
2017-09-25T20:40:17.007Z,18.21
2017-09-25T20:42:50.420Z,18.17
2017-09-25T20:45:22.219Z,18.15
2017-09-25T20:47:54.411Z,18.15
2017-09-25T20:50:26.525Z,18.14
2017-09-25T20:52:57.769Z,18.13
2017-09-25T20:55:29.176Z,18.12
2017-09-25T20:58:00.269Z,18.10
2017-09-25T21:00:31.407Z,18.07
2017-09-25T21:03:03.529Z,18.07
2017-09-25T21:05:34.708Z,18.40
2017-09-25T21:08:06.212Z,18.84
2017-09-25T21:10:38.012Z,19.05
2017-09-25T21:13:09.319Z,19.21
2017-09-25T21:15:41.107Z,19.37
2017-09-25T21:18:13.907Z,19.46
2017-09-25T21:20:45.065Z,19.41
2017-09-25T21:23:16.509Z,19.35
2017-09-25T21:25:48.605Z,19.04
2017-09-25T21:28:20.282Z,18.72
2017-09-25T21:30:52.634Z,18.47
2017-09-25T21:33:23.736Z,18.26
2017-09-25T21:35:55.261Z,18.12
2017-09-25T21:38:26.351Z,17.96
2017-09-25T21:40:58.822Z,17.86
2017-09-25T21:43:30.630Z,17.74
2017-09-25T21:46:02.794Z,17.66
2017-09-25T21:48:33.920Z,17.57
2017-09-25T21:51:08.099Z,17.48
2017-09-25T21:53:39.270Z,17.38
2017-09-25T21:56:10.696Z,17.58
2017-09-25T21:58:41.837Z,17.63
2017-09-25T22:04:15.404Z,17.37
2017-09-25T22:06:46.650Z,17.26
2017-09-25T22:09:18.288Z,17.16
2017-09-25T22:11:49.420Z,17.10
2017-09-25T22:14:20.732Z,17.03
2017-09-25T22:16:51.849Z,16.93
2017-09-25T22:19:22.923Z,17.13
2017-09-25T22:21:54.371Z,17.58
2017-09-25T22:24:25.470Z,17.77
2017-09-25T22:26:56.536Z,17.72
2017-09-25T22:29:27.595Z,17.53
2017-09-25T22:31:58.627Z,17.33
2017-09-25T22:34:30.743Z,17.33
2017-09-25T22:37:02.442Z,17.41
2017-09-25T22:39:35.516Z,17.30
2017-09-25T22:42:07.101Z,17.11
2017-09-25T22:44:38.599Z,16.92
2017-09-25T22:47:10.000Z,16.76
2017-09-25T22:49:41.560Z,16.79
2017-09-25T22:52:12.824Z,17.03
2017-09-25T22:54:43.993Z,17.18
2017-09-25T22:57:15.420Z,17.27
2017-09-25T22:59:46.599Z,17.35
2017-09-25T23:02:17.776Z,17.41
2017-09-25T23:04:49.338Z,17.41
2017-09-25T23:07:21.009Z,17.37
2017-09-25T23:09:53.312Z,17.26
2017-09-25T23:12:25.216Z,17.19
2017-09-25T23:14:57.018Z,17.17
2017-09-25T23:17:28.103Z,17.29
2017-09-25T23:19:59.467Z,17.32
2017-09-25T23:22:31.073Z,17.29
2017-09-25T23:25:03.193Z,17.28
2017-09-25T23:27:36.220Z,17.20
2017-09-25T23:30:08.440Z,17.07
2017-09-25T23:32:39.638Z,17.04
2017-09-25T23:35:10.719Z,17.47
2017-09-25T23:37:42.153Z,17.79
2017-09-25T23:40:14.021Z,18.12
2017-09-25T23:42:45.071Z,18.28
2017-09-25T23:45:16.939Z,18.48
2017-09-25T23:47:48.068Z,18.63
2017-09-25T23:50:19.477Z,18.82
2017-09-25T23:52:50.804Z,18.83
2017-09-25T23:55:21.885Z,18.51
2017-09-25T23:57:52.936Z,18.44
